Impacts METAR Board
IDs:

KSUA - Stuart/Witham Fld, FL, US

Updated at: 0500 UTC 22 Oct 2021
Potential Impact None Slight Moderate High
Time 21/17Z 21/18Z 21/19Z 21/20Z 21/21Z 21/22Z 21/23Z 22/00Z 22/01Z 22/02Z 22/03Z 22/04Z 22/05Z
Temp84 82 84 84 82 81 79 79 79 77 79 77 77
Dewpt68 66 68 66 66 66 66 66 66 66 68 68 68
Altim30.15 30.13 30.10 30.09 30.10 30.10 30.10 30.10 30.11 30.12 30.10 30.10 30.08
VIS10 7 7 7 7 7 7 7 7 10 10 10 10
CIG-- -- -- -- -- -- -- -- -- -- -- -- --
CoverSCTSCTSCTSCTSCTSCTSCTFEWFEWSCTSCTSCTCLR
FltCatVFRVFRVFRVFRVFRVFRVFRVFRVFRVFRVFRVFRVFR
WX--------------------------
WDir100120120110110110110110100100110110120
WSpd11 10 10 9 9 9 6 4 7 6 8 6 4
WGst18 16 16 -- -- -- -- -- -- -- -- -- --
Raw hourly METARs
KSUA 211648Z 10011G18KT 10SM SCT033 29/20 A3015
KSUA 211747Z 12010G16KT 7SM SCT022 28/19 A3013
KSUA 211847Z 12010G16KT 7SM SCT025 29/20 A3010
KSUA 211947Z 11009KT 7SM SCT025 29/19 A3009
KSUA 212047Z 11009KT 7SM SCT027 28/19 A3010
KSUA 212147Z 11009KT 7SM SCT032 27/19 A3010
KSUA 212247Z 11006KT 7SM SCT032 26/19 A3010
KSUA 212355Z 11004KT 7SM FEW062 26/19 A3010
KSUA 220047Z 10007KT 7SM FEW035 26/19 A3011
KSUA 220155Z AUTO 10006KT 10SM SCT030 25/19 A3012 RMK AO2
KSUA 220255Z AUTO 11008KT 10SM SCT028 SCT043 26/20 A3010 RMK AO2
KSUA 220355Z AUTO 11006KT 10SM SCT028 25/20 A3010 RMK AO2
KSUA 220455Z AUTO 12004KT 10SM CLR 25/20 A3008 RMK AO2



Page loaded:  05:47 UTC  |   10:47 PM Pacific  |   11:47 PM Mountain  |   12:47 AM Central  |   01:47 AM Eastern

 

ADVISORIES

FORECASTS

FORECASTS

OBSERVATIONS

USER TOOLS

ABOUT US